logo
App data

Zombie Shooter 2

Zombie Shooter 2 is a unique blend of two game genres - Action and RPG. Every player can choose a character to the liking, get experience to develop skills, earn money and spend it at weapons, medications and useful devices. All of this will be used against thousands of enemies.
Store | Hub | SteamDB | Site
Developer: Sigma Team Inc. Publisher: Sigma Team Inc.
Genre: Action, Indie, RPG
Languages: English, Russian
Tags: Action (54), Zombies (48), Indie (43), RPG (42), Shooter (20), Top-Down Shooter (13), Isometric (10), Gore (10), Singleplayer (8), Top-Down (6)
Category: Single-player
Release date: Sep 23, 2009
Price: $9.99
Old userscore: 77% Owners: 100,000 .. 200,000
Followers: 950
Peak concurrent players yesterday: 4
YouTube stats: 549 views and 13 comments for top 50 videos uploaded last week, 5 new videos uploaded yesterday.
Playtime total: 03:22 (average) 03:40 (median)

Steam Spy is still in beta, so expect major bugs.

Owners data:

Access restricted.

This feature is only available to users with special access rights. Sorry.

If you want to proceed, you need to register or log in first and then back Steam Spy on Patreon. Look for Indie or Pro pledge.

Don't forget to use the same email as on Steam Spy!

Audience in 2 weeks:

Access restricted.

This feature is only available to users with special access rights. Sorry.

If you want to proceed, you need to register or log in first and then back Steam Spy on Patreon. Look for Indie or Pro pledge.

Don't forget to use the same email as on Steam Spy!

Peak daily concurrent players:

CCU data courtesy of SteamDB. Used with permission.

Hourly concurrent players:

Daily Twitch stats:

Hourly Twitch stats:

Followers over time

Access restricted.

This feature is only available to users with special access rights. Sorry.

If you want to proceed, you need to register or log in first and then back Steam Spy on Patreon. Look for Indie or Pro pledge.

Don't forget to use the same email as on Steam Spy!

Views for top 50 videos on YouTube for this game:

Games similar to this one:

# Game Release date
Price
Score rank
(Userscore / Metascore)
Owners
Players
Playtime (Median)
1 Data Jammers: FastForward Oct 24, 2011 FreeN/A (N/A)20,000 .. 50,0000%00:00 (00:00)
2 Xotic Sep 16, 2011 $9.99N/A (N/A/67%)50,000 .. 100,0000%00:00 (00:00)
3 Flotilla Mar 29, 2010 $9.99N/A (N/A/72%)100,000 .. 200,0000%00:00 (00:00)
4 Capsized Apr 29, 2011 $9.99N/A (N/A/80%)200,000 .. 500,0000%00:00 (00:00)
5 ProtoGalaxy Oct 6, 2010 FreeN/A (N/A)50,000 .. 100,0000%00:00 (00:00)
6 Nexuiz May 10, 2012 $9.99N/A (N/A/54%)200,000 .. 500,0000%00:00 (00:00)
7 Age of Wonders II: The Wizard's Throne Oct 2010 $9.99N/A (N/A/86%)50,000 .. 100,0000%00:00 (00:00)
8 Naval Warfare May 25, 2011 $2.99N/A (N/A/57%)100,000 .. 200,0000%00:00 (00:00)
9 Theatre of War 3: Korea Mar 24, 2011 $6.99N/A (N/A/49%)50,000 .. 100,0000%00:00 (00:00)
10 Garshasp: The Monster Slayer May 9, 2011 $4.99N/A (N/A/49%)50,000 .. 100,0000%00:00 (00:00)
11 Painkiller Redemption Feb 25, 2011 $4.99N/A (N/A/43%)200,000 .. 500,0000%00:00 (00:00)
12 Garshasp: Temple of the Dragon Sep 24, 2012 $4.99N/A (N/A)20,000 .. 50,0000%00:00 (00:00)
13 Worms Oct 30, 1995 $7.99N/A (N/A)100,000 .. 200,0005.88%00:03 (00:01)
14 Fowl Space Mar 21, 2012 $4.99N/A (N/A)20,000 .. 50,0000%00:00 (00:00)
15 Guardians of Graxia Nov 1, 2010 N/AN/A (N/A)50,000 .. 100,0000%00:00 (00:00)
16 Achron Aug 29, 2011 $19.99N/A (N/A/54%)20,000 .. 50,0000%00:00 (00:00)
17 Hydrophobia: Prophecy May 9, 2011 $4.99N/A (N/A/64%)200,000 .. 500,0000%00:00 (00:00)
18 The Initial Jul 17, 2017 $9.99N/A (N/A)100,000 .. 200,0000%00:00 (00:00)
19 Attractio Jan 18, 2016 $19.99N/A (N/A)20,000 .. 50,0000%00:00 (00:00)
20 Raptor: Call of The Shadows - 2015 Edition Apr 1, 1994 $4.99N/A (N/A)50,000 .. 100,0000%00:00 (00:00)
21 Tiestru Aug 20, 2014 $9.99N/A (N/A)0 .. 20,0000%00:00 (00:00)
22 Platypus Jun 2, 2004 $6.99N/A (N/A)100,000 .. 200,0000%00:00 (00:00)
23 Reprisal Universe Sep 15, 2014 $6.99N/A (N/A)20,000 .. 50,0000%00:00 (00:00)
24 War in a Box: Paper Tanks Jul 4, 2014 $4.99N/A (N/A)50,000 .. 100,0000%00:00 (00:00)
25 Gods vs Humans Sep 5, 2013 $4.99N/A (N/A)20,000 .. 50,0000%00:00 (00:00)
26 OCEAN CITY RACING: Redux Aug 27, 2016 $1.99N/A (N/A)50,000 .. 100,0000%00:00 (00:00)
27 Raiden IV: OverKill Sep 3, 2015 $14.99N/A (N/A)20,000 .. 50,0000%00:00 (00:00)
28 Pixel Hunter Jul 18, 2014 $2.99N/A (N/A)20,000 .. 50,0000%00:00 (00:00)
29 Arms Dealer Mar 26, 2015 N/AN/A (N/A)0 .. 20,0000%00:00 (00:00)
30 Jet Gunner Aug 4, 2014 $0.99N/A (N/A)100,000 .. 200,0000%00:00 (00:00)
31 Eradicator Jan 1, 1996 $6.99N/A (N/A)0 .. 20,0000%00:00 (00:00)
32 Woah Dave! Oct 30, 2014 $4.99N/A (N/A)20,000 .. 50,0000%00:00 (00:00)
33 Neocolonialism Nov 25, 2014 $2.99N/A (N/A)0 .. 20,0000%00:00 (00:00)
34 Space Hack Nov 15, 2005 $4.99N/A (N/A/63%)200,000 .. 500,0000%00:00 (00:00)
35 Insanity's Blade Dec 5, 2014 $5.99N/A (N/A)20,000 .. 50,0000%00:00 (00:00)
36 Alien Shooter 2 Conscription May 18, 2012 $9.99N/A (N/A)100,000 .. 200,0007.69%00:01 (00:00)
37 Crusader Kings Complete Feb 14, 2012 $2.49N/A (N/A/73%)100,000 .. 200,0000%00:00 (00:00)
38 Alien Zombie Megadeath Oct 18, 2011 $4.99N/A (N/A)20,000 .. 50,0000%00:00 (00:00)
39 Gratuitous Tank Battles May 17, 2012 $9.99N/A (N/A/69%)50,000 .. 100,0000%00:00 (00:00)
40 Bunch of Heroes Sep 21, 2011 $4.99N/A (N/A)100,000 .. 200,0000%00:00 (00:00)
41 Painkiller: Recurring Evil Feb 29, 2012 $9.99N/A (N/A/38%)50,000 .. 100,0000%00:00 (00:00)
42 Cossacks II: Napoleonic Wars Aug 26, 2011 $4.99N/A (N/A/73%)50,000 .. 100,0000%00:00 (00:00)
43 Cubemen Mar 16, 2012 $3.99N/A (N/A/74%)100,000 .. 200,0000%00:00 (00:00)
44 American Conquest Aug 26, 2011 $4.99N/A (N/A/76%)50,000 .. 100,0000%00:00 (00:00)
45 Noitu Love 2: Devolution Apr 23, 2012 $4.99N/A (N/A/80%)50,000 .. 100,0000%00:00 (00:00)
46 American Conquest: Fight Back Aug 26, 2011 $4.99N/A (N/A/66%)50,000 .. 100,0000%00:00 (00:00)
47 Sacred Citadel Apr 16, 2013 $9.99N/A (N/A/61%)200,000 .. 500,0000%00:00 (00:00)
48 Global Ops: Commando Libya Oct 26, 2011 $4.99N/A (N/A/37%)50,000 .. 100,0000%00:00 (00:00)
49 Hero Academy N/AN/A (N/A/75%)0 .. 20,0000%00:00 (00:00)
50 Serious Sam: The Random Encounter Oct 24, 2011 $4.99N/A (N/A/64%)200,000 .. 500,0000%00:00 (00:00)
51 Rune Classic Jun 13, 2012 $9.99N/A (N/A)100,000 .. 200,0000%00:00 (00:00)
52 Choplifter HD Jan 11, 2012 N/AN/A (N/A/65%)50,000 .. 100,0000%00:00 (00:00)
53 Genesis Rising Aug 6, 2007 $4.99N/A (N/A/57%)20,000 .. 50,0000%00:00 (00:00)
54 Tom Clancy's Ghost Recon Desert Siege Jul 15, 2008 $4.99N/A (N/A/82%)100,000 .. 200,0000%00:00 (00:00)
55 Painkiller Overdose Oct 30, 2007 $4.99N/A (N/A/65%)200,000 .. 500,0000%00:00 (00:00)
56 Deathmatch Classic Jun 1, 2001 $4.99N/A (N/A)2,000,000 .. 5,000,0000%00:00 (00:00)
57 Full Spectrum Warrior Jul 17, 2007 $9.99N/A (N/A/80%)100,000 .. 200,0000%00:00 (00:00)
58 Half-Life Deathmatch: Source May 1, 2006 $9.99N/A (N/A)10,000,000 .. 20,000,0000%00:00 (00:00)
59 Commandos: Beyond the Call of Duty Apr 7, 1999 $4.99N/A (N/A)500,000 .. 1,000,0000%00:00 (00:00)
60 QUAKE III: Team Arena Aug 3, 2007 $14.99N/A (N/A/69%)500,000 .. 1,000,0000%00:00 (00:00)
61 Two Worlds II Castle Defense Jun 14, 2011 $9.99N/A (N/A)200,000 .. 500,0000%00:00 (00:00)
62 HeXen: Deathkings of the Dark Citadel Aug 3, 2007 $4.99N/A (N/A)50,000 .. 100,0000%00:00 (00:00)
63 QUAKE Mission Pack 2: Dissolution of Eternity Aug 3, 2007 $2.99N/A (N/A)200,000 .. 500,0000%00:00 (00:00)
64 Heretic: Shadow of the Serpent Riders Aug 3, 2007 $4.99N/A (N/A)200,000 .. 500,0000%00:00 (00:00)
65 Grand Theft Auto 2 Jan 4, 2008 FreeN/A (N/A)500,000 .. 1,000,0000%00:00 (00:00)
66 Alpha Prime Nov 7, 2007 $4.99N/A (N/A/59%)200,000 .. 500,0000%00:00 (00:00)
67 Damnation May 22, 2009 $9.99N/A (N/A/41%)50,000 .. 100,0000%00:00 (00:00)
68 Call of Duty: United Offensive Oct 13, 2006 $19.99N/A (N/A/87%)200,000 .. 500,0000%00:00 (00:00)
69 Unreal 2: The Awakening Mar 17, 2008 $14.99N/A (N/A/75%)200,000 .. 500,0000%00:00 (00:00)
70 Stalingrad Apr 5, 2005 $4.99N/A (N/A)20,000 .. 50,0000%00:00 (00:00)
71 World War I Jun 17, 2005 $4.99N/A (N/A)20,000 .. 50,0000%00:00 (00:00)
72 Monster Bash May 5, 2014 $4.99N/A (N/A)50,000 .. 100,0000%00:00 (00:00)
73 Dead Island Retro Revenge May 31, 2016 $4.99N/A (N/A)100,000 .. 200,0000%00:00 (00:00)
74 Crystal Caves May 5, 2014 $4.99N/A (N/A)0 .. 20,0000%00:00 (00:00)
75 Seven Kingdoms 2 HD Feb 4, 2015 $9.99N/A (N/A)50,000 .. 100,0000%00:00 (00:00)
76 Alien Carnage / Halloween Harry May 5, 2014 N/AN/A (N/A)20,000 .. 50,0000%00:00 (00:00)
77 Total Extreme Wrestling 2010 Mar 19, 2015 $14.99N/A (N/A)0 .. 20,0000%00:00 (00:00)
78 Hocus Pocus May 5, 2014 $4.99N/A (N/A)0 .. 20,0000%00:00 (00:00)
79 Bierzerkers Feb 25, 2016 $4.99N/A (N/A)100,000 .. 200,0000%00:00 (00:00)
80 Secret Agent May 5, 2014 $4.99N/A (N/A)0 .. 20,0000%00:00 (00:00)
81 Fly in the House Mar 6, 2015 $9.99N/A (N/A)20,000 .. 50,0000%00:00 (00:00)
82 Raptor: Call of the Shadows (1994 Classic Edition) May 5, 2014 $4.99N/A (N/A)0 .. 20,0000%00:00 (00:00)
83 On My Own Feb 26, 2016 $4.99N/A (N/A)0 .. 20,0000%00:00 (00:00)
84 Rise of the Triad: Dark War May 5, 2014 $6.99N/A (N/A)20,000 .. 50,0000%00:00 (00:00)
85 STAR WARS - X-Wing Special Edition Jan 1, 1994 $9.99N/A (N/A)200,000 .. 500,0000%00:00 (00:00)
86 ZombieRun Jun 3, 2015 $2.99N/A (N/A)0 .. 20,0000%00:00 (00:00)
87 Strike Suit Infinity Apr 30, 2013 $6.99N/A (N/A/66%)100,000 .. 200,0000%00:00 (00:00)
88 LocoCycle Feb 14, 2014 $9.99N/A (N/A)0 .. 20,0000%00:00 (00:00)
89 Galactic Civilizations I: Ultimate Edition Aug 14, 2012 $9.99N/A (N/A/83%)100,000 .. 200,0000%00:00 (00:00)
90 Legacy of Kain: Defiance Dec 6, 2012 $6.99N/A (N/A/70%)200,000 .. 500,0000%00:00 (00:00)
91 Intrusion 2 Sep 11, 2012 $9.99N/A (N/A/80%)200,000 .. 500,0000%00:00 (00:00)
92 Legacy of Kain: Soul Reaver 2 Dec 6, 2012 $6.99N/A (N/A/77%)200,000 .. 500,0000%00:00 (00:00)
93 Karateka Dec 3, 2012 $3.99N/A (N/A/48%)50,000 .. 100,0000%00:00 (00:00)
94 Tomb Raider V: Chronicles Nov 28, 2012 $6.99N/A (N/A)500,000 .. 1,000,0000%00:00 (00:00)
95 Dogfight 1942 Sep 21, 2012 $9.99N/A (N/A)100,000 .. 200,0000%00:00 (00:00)
96 Tomb Raider VI: The Angel of Darkness Nov 28, 2012 $6.99N/A (N/A)500,000 .. 1,000,0000%00:00 (00:00)
97 iBomber Attack Nov 1, 2012 $5.99N/A (N/A)20,000 .. 50,0000%00:00 (00:00)
98 POSTAL Nov 14, 1997 FreeN/A (N/A/56%)2,000,000 .. 5,000,0000%00:00 (00:00)
99 Droid Assault Jan 9, 2013 $9.99N/A (N/A)50,000 .. 100,0000%00:00 (00:00)
100 Thunder Wolves May 15, 2013 $9.99N/A (N/A/69%)100,000 .. 200,0000%00:00 (00:00)
101 NiGHTS Into Dreams Dec 17, 2012 $7.99N/A (N/A)200,000 .. 500,0000%00:00 (00:00)
102 Another World – 20th Anniversary Edition Apr 4, 2013 $9.99N/A (N/A)100,000 .. 200,0000%00:00 (00:00)
103 Miner Wars 2081 Nov 28, 2012 $4.99N/A (N/A/52%)50,000 .. 100,0000%00:00 (00:00)
104 Cruel Arena Aug 18, 2015 $0.99N/A (N/A)200,000 .. 500,0000%00:00 (00:00)
105 ARCADE GAME SERIES: GALAGA Apr 19, 2016 $3.99N/A (N/A)100,000 .. 200,0000%00:00 (00:00)
106 Glass Wing Jun 24, 2015 FreeN/A (N/A)50,000 .. 100,0000%00:00 (00:00)
107 STAR WARS - X-Wing Alliance Mar 28, 1999 $9.99N/A (N/A)200,000 .. 500,0000%00:00 (00:00)
108 The Ship: Remasted Oct 31, 2016 $9.99N/A (N/A)50,000 .. 100,0000%00:00 (00:00)
109 STAR WARS X-Wing vs TIE Fighter - Balance of Power Campaigns Apr 17, 1997 $9.99N/A (N/A)200,000 .. 500,0000%00:00 (00:00)
110 Zanzarah: The Hidden Portal Aug 20, 2015 $7.99N/A (N/A)100,000 .. 200,0000%00:00 (00:00)
111 METAL SLUG 2 Apr 14, 2016 $6.99N/A (N/A)50,000 .. 100,0000%00:00 (00:00)
112 ARCADE GAME SERIES: PAC-MAN Apr 19, 2016 $3.99N/A (N/A)50,000 .. 100,0000%00:00 (00:00)
113 SHOCK TROOPERS May 18, 2016 $7.99N/A (N/A)20,000 .. 50,0000%00:00 (00:00)
114 Little Big Adventure - Enhanced Edition Oct 14, 1994 $5.99N/A (N/A)20,000 .. 50,0000%00:00 (00:00)
115 TWINKLE STAR SPRITES May 26, 2016 $7.99N/A (N/A)20,000 .. 50,0000%00:00 (00:00)
116 Spheroid Aug 29, 2015 $1.99N/A (N/A)20,000 .. 50,0000%00:00 (00:00)
117 Grey Cubes May 15, 2015 N/AN/A (N/A)20,000 .. 50,0000%00:00 (00:00)
118 Zenohell Oct 15, 2015 $9.99N/A (N/A)0 .. 20,0000%00:00 (00:00)
119 Air Brawl Jun 2, 2015 FreeN/A (N/A)100,000 .. 200,0000%00:00 (00:00)
120 ARCADE GAME SERIES: DIG DUG Apr 19, 2016 $3.99N/A (N/A)50,000 .. 100,0000%00:00 (00:00)
121 Heli Heroes Nov 1, 2013 $4.99N/A (N/A)100,000 .. 200,0000%00:00 (00:00)
122 Ancient Space Sep 23, 2014 $19.99N/A (N/A)50,000 .. 100,0000%00:00 (00:00)
123 UFO: Afterlight Feb 8, 2007 $6.99N/A (N/A/71%)200,000 .. 500,0000%00:00 (00:00)
124 Starlight Inception™ Apr 22, 2014 $9.99N/A (N/A)0 .. 20,0000%00:00 (00:00)
125 The Apogee Throwback Pack Jul 1, 2013 $9.99N/A (N/A)100,000 .. 200,0000%00:00 (00:00)
126 Earth 2140 Nov 15, 2013 $4.99N/A (N/A)200,000 .. 500,0001.27%04:25 (01:28)
127 The Chaos Engine Aug 29, 2013 $9.99N/A (N/A/40%)50,000 .. 100,0000%00:00 (00:00)
128 Earth 2150 Trilogy Nov 1, 2013 $6.99N/A (N/A/78%)100,000 .. 200,0001.09%04:48 (01:36)
129 Blood Omen 2: Legacy of Kain Sep 24, 2013 $6.99N/A (N/A)200,000 .. 500,0000%00:00 (00:00)
130 World War III: Black Gold Sep 27, 2013 $4.99N/A (N/A/71%)200,000 .. 500,0001.15%04:48 (01:36)
131 Daikatana Oct 1, 2013 $6.99N/A (N/A)200,000 .. 500,0000%00:00 (00:00)
132 World War II: Panzer Claws Sep 27, 2013 $4.99N/A (N/A/61%)100,000 .. 200,0001.15%04:17 (01:25)
133 Strike Vector Jan 28, 2014 $11.99N/A (N/A/73%)100,000 .. 200,0000%00:00 (00:00)
134 Blast Em! Jan 22, 2014 $99.99N/A (N/A)0 .. 20,0000%00:00 (00:00)
135 Huntsman: The Orphanage (Halloween Edition) Sep 13, 2013 $8.99N/A (N/A)100,000 .. 200,0000%00:00 (00:00)
136 Ring Runner: Flight of the Sages Nov 19, 2013 $4.99N/A (N/A/75%)100,000 .. 200,0000%00:00 (00:00)
137 Portal 2 Sixense Perceptual Pack Sep 20, 2013 FreeN/A (N/A)1,000,000 .. 2,000,0000%00:00 (00:00)
138 AquaNox 2: Revelation Apr 20, 2010 $4.99N/A (N/A/59%)50,000 .. 100,0000%00:00 (00:00)
139 Dead Horde Jul 27, 2011 $5.99N/A (N/A)50,000 .. 100,0000%00:00 (00:00)
140 Tom Clancy's Ghost Recon Island Thunder Jul 15, 2008 $4.99N/A (N/A/82%)100,000 .. 200,0000%00:00 (00:00)
141 Dark Sector Mar 24, 2009 $9.99N/A (N/A/66%)50,000 .. 100,0000%00:00 (00:00)
142 Tom Clancy's Rainbow Six Lockdown May 13, 2008 $9.99N/A (N/A/59%)50,000 .. 100,0000%00:00 (00:00)
143 Delta Force: Black Hawk Down Mar 24, 2003 $14.99N/A (N/A/77%)200,000 .. 500,0000%00:00 (00:00)
144 Rayman Raving Rabbids Jun 13, 2008 $9.99N/A (N/A/58%)20,000 .. 50,0000%00:00 (00:00)
145 Delta Force — Black Hawk Down: Team Sabre Jan 20, 2004 $9.99N/A (N/A)20,000 .. 50,0000%00:00 (00:00)
146 Insecticide Part 1 Jul 1, 2008 $0.99N/A (N/A/65%)100,000 .. 200,0000%00:00 (00:00)
147 Zombie Shooter May 27, 2009 $4.99N/A (N/A)100,000 .. 200,0000%00:00 (00:00)
148 Helldorado Apr 30, 2009 $9.99N/A (N/A/65%)20,000 .. 50,0000%00:00 (00:00)
149 SEGA Mega Drive and Genesis Classics Jun 1, 2010 N/AN/A (N/A)500,000 .. 1,000,0000%00:00 (00:00)
150 Watchmen: The End is Nigh Mar 4, 2009 $4.99N/A (N/A/61%)20,000 .. 50,0000%00:00 (00:00)
151 Dwarfs!? May 4, 2011 $9.99N/A (N/A)200,000 .. 500,0000%00:00 (00:00)
152 Bionic Commando Jul 28, 2009 $9.99N/A (N/A/69%)200,000 .. 500,0000%00:00 (00:00)
153 AquaNox Apr 20, 2010 $4.99N/A (N/A/67%)100,000 .. 200,0000%00:00 (00:00)
154 Bionic Commando: Rearmed Jul 28, 2009 $9.99N/A (N/A/86%)200,000 .. 500,0000%00:00 (00:00)
155 Tethered Feb 27, 2017 $24.99N/A (N/A)0 .. 20,0000%00:00 (00:00)
156 Battle Dome Jun 8, 2017 $9.99N/A (N/A)20,000 .. 50,0000%00:00 (00:00)
157 Quar: Battle for Gate 18 Apr 4, 2016 $19.99N/A (N/A)0 .. 20,0000%00:00 (00:00)
158 Black & White Bushido Oct 2, 2015 $12.99N/A (N/A)20,000 .. 50,0000%00:00 (00:00)
159 Crown and Council Jan 27, 2017 FreeN/A (N/A)100,000 .. 200,0000%00:00 (00:00)
160 Zero Reflex : Black Eye Edition Nov 5, 2015 $3.99N/A (N/A)20,000 .. 50,0000%00:00 (00:00)
161 UBERMOSH:BLACK Feb 17, 2016 $0.99N/A (N/A)20,000 .. 50,0000%00:00 (00:00)
162 Guardians of Orion (Phase 1) Dec 1, 2015 $0.99N/A (N/A)100,000 .. 200,0000%00:00 (00:00)
163 STAR WARS: Rebel Assault I + II Oct 16, 1993 $9.99N/A (N/A)100,000 .. 200,0000%00:00 (00:00)
164 Master of Orion 3 Feb 25, 2003 $9.99N/A (N/A/64%)200,000 .. 500,0000%00:00 (00:00)
165 Zenodyne R May 29, 2016 $9.99N/A (N/A)0 .. 20,0000%00:00 (00:00)
166 SHOWTIME 2073 Feb 12, 2016 $1.99N/A (N/A)200,000 .. 500,0000%00:00 (00:00)
167 Versus: Battle of the Gladiator Aug 26, 2016 N/AN/A (N/A)50,000 .. 100,0000%00:00 (00:00)
168 Cosmic Trip May 24, 2017 $19.99N/A (N/A)20,000 .. 50,00020%00:17 (00:05)
169 Arkshot May 19, 2016 $4.99N/A (N/A)0 .. 20,0000%00:00 (00:00)
170 Felt Tip Circus Apr 5, 2016 $7.99N/A (N/A)0 .. 20,0000%00:00 (00:00)
171 VERSUS SQUAD Oct 26, 2016 $7.99N/A (N/A)50,000 .. 100,0000%00:00 (00:00)
172 Battle Academy Apr 16, 2014 $14.99N/A (N/A)20,000 .. 50,0000%00:00 (00:00)
173 GIGANTIC ARMY Mar 6, 2014 $5.99N/A (N/A)50,000 .. 100,0000%00:00 (00:00)
174 Marc Eckō's Getting Up: Contents Under Pressure Feb 14, 2006 $14.99N/A (N/A/69%)100,000 .. 200,0000%00:00 (00:00)
175 Eterium Apr 15, 2014 $4.99N/A (N/A)100,000 .. 200,0000%00:00 (00:00)
176 Cold War Jan 8, 2014 $4.99N/A (N/A/64%)20,000 .. 50,0000%00:00 (00:00)
177 BloodRayne Betrayal Apr 30, 2014 $9.99N/A (N/A)50,000 .. 100,0000%00:00 (00:00)
178 Desperados: Wanted Dead or Alive Nov 20, 2013 $4.99N/A (N/A/78%)100,000 .. 200,0000%00:00 (00:00)
179 Explodemon Mar 25, 2014 $8.99N/A (N/A)20,000 .. 50,0000%00:00 (00:00)
180 BlackSoul: Extended Edition Feb 26, 2014 $3.99N/A (N/A)200,000 .. 500,0000%00:00 (00:00)
181 Desert Thunder Mar 19, 2014 $2.99N/A (N/A)20,000 .. 50,0000%00:00 (00:00)
182 Hyper Fighters Jan 23, 2014 $2.99N/A (N/A)50,000 .. 100,0000%00:00 (00:00)
183 Marine Sharpshooter II: Jungle Warfare Apr 3, 2014 $2.99N/A (N/A/52%)100,000 .. 200,0000%00:00 (00:00)
184 Etherlords Feb 13, 2014 $4.99N/A (N/A/77%)100,000 .. 200,0000%00:00 (00:00)
185 CT Special Forces: Fire for Effect Mar 13, 2014 $2.99N/A (N/A)50,000 .. 100,0000%00:00 (00:00)
186 Sniper Art of Victory Jan 31, 2014 $2.99N/A (N/A)200,000 .. 500,0000%00:00 (00:00)
187 Litil Divil Mar 19, 2014 $0.89N/A (N/A)20,000 .. 50,0000%00:00 (00:00)
188 Praetorians Mar 10, 2003 $1.49N/A (N/A/78%)100,000 .. 200,0000%00:00 (00:00)
189 Reign: Conflict of Nations Jul 12, 2010 $3.99N/A (N/A/60%)50,000 .. 100,0000%00:00 (00:00)
190 Victoria I Complete Aug 20, 2010 $9.99N/A (N/A)100,000 .. 200,0000%00:00 (00:00)
191 Future Wars Jul 15, 2010 $0.99N/A (N/A)50,000 .. 100,0000%00:00 (00:00)
192 Dark Void Jan 19, 2010 $9.99N/A (N/A/57%)50,000 .. 100,0000%00:00 (00:00)
193 Wasteland Angel Sep 1, 2011 $0.99N/A (N/A)100,000 .. 200,0000%00:00 (00:00)
194 Lost Planet: Extreme Condition Colonies Edition Feb 11, 2010 $19.99N/A (N/A/70%)50,000 .. 100,0000%00:00 (00:00)
195 Robin Hood: The Legend of Sherwood Aug 26, 2011 $7.99N/A (N/A/80%)100,000 .. 200,0000%00:00 (00:00)
196 Dark Void Zero Apr 12, 2010 $4.99N/A (N/A)20,000 .. 50,0000%00:00 (00:00)
197 Ironclads: American Civil War Apr 28, 2010 $9.99N/A (N/A)20,000 .. 50,0000%00:00 (00:00)
198 NecroVisioN: Lost Company Feb 19, 2010 $6.99N/A (N/A)100,000 .. 200,0000%00:00 (00:00)
199 Ironclads: Anglo Russian War 1866 Jun 21, 2011 $9.99N/A (N/A)20,000 .. 50,0000%00:00 (00:00)
200 Star Wolves 2 Mar 2, 2010 $3.99N/A (N/A)50,000 .. 100,0000%00:00 (00:00)
201 Pirates of Black Cove Aug 2, 2011 $9.99N/A (N/A/56%)50,000 .. 100,0000%00:00 (00:00)
202 Theatre of War Jul 9, 2010 $3.99N/A (N/A/66%)100,000 .. 200,0000%00:00 (00:00)
203 Plain Sight Apr 5, 2010 $4.99N/A (N/A/76%)50,000 .. 100,0000%00:00 (00:00)
204 Real Warfare 1242 Nov 30, 2011 $3.99N/A (N/A)20,000 .. 50,0000%00:00 (00:00)
205 Burn Zombie Burn! Aug 12, 2010 $9.99N/A (N/A/72%)50,000 .. 100,0000%00:00 (00:00)
206 What The Box? Sep 12, 2016 $4.99N/A (N/A)50,000 .. 100,0000%00:00 (00:00)
207 Oats Studios - Volume 1 Assets Jun 14, 2017 FreeN/A (N/A)20,000 .. 50,0000%00:00 (00:00)
208 Lazerbait Oct 14, 2016 FreeN/A (N/A)50,000 .. 100,0000%00:00 (00:00)
209 Cthulhu Realms Jul 1, 2016 N/AN/A (N/A)50,000 .. 100,0000%00:00 (00:00)
210 Death Dojo Nov 8, 2016 FreeN/A (N/A)0 .. 20,0000%00:00 (00:00)
211 Imperium Galactica II Dec 1, 1999 $9.99N/A (N/A)20,000 .. 50,0000%00:00 (00:00)
212 What The Heck, Dude? Nov 3, 2016 $0.99N/A (N/A)100,000 .. 200,0000%00:00 (00:00)
213 Deformers Apr 20, 2017 N/AN/A (N/A)20,000 .. 50,0000%00:00 (00:00)
214 Deus Ex: Breach Jan 24, 2017 FreeN/A (N/A)50,000 .. 100,0000%00:00 (00:00)
215 Scrap Garden - The Day Before Oct 7, 2016 FreeN/A (N/A)100,000 .. 200,0000%00:00 (00:00)
216 STAR WARS SHADOWS OF THE EMPIRE Sep 17, 1997 $5.99N/A (N/A)200,000 .. 500,0000%00:00 (00:00)
217 THOTH Oct 7, 2016 $4.99N/A (N/A)50,000 .. 100,0000%00:00 (00:00)
218 Mini Ghost Apr 28, 2017 $1.99N/A (N/A)20,000 .. 50,0000%00:00 (00:00)
219 Unbox: Newbie's Adventure Sep 5, 2016 $3.99N/A (N/A/68%)50,000 .. 100,0000%00:00 (00:00)
220 Master of Magic Chess May 23, 2017 FreeN/A (N/A)0 .. 20,0000%00:00 (00:00)
221 Overkill VR: Action Shooter FPS Nov 16, 2016 $19.99N/A (N/A)20,000 .. 50,0000%00:00 (00:00)
222 Steam 360 Video Player May 10, 2017 FreeN/A (N/A)100,000 .. 200,0000%00:00 (00:00)
223 Rush for Glory Jun 16, 2014 $14.99N/A (N/A)20,000 .. 50,0000%00:00 (00:00)
224 Haegemonia: The Solon Heritage May 1, 2014 $4.99N/A (N/A)20,000 .. 50,0000%00:00 (00:00)
225 Chaos Domain May 1, 2014 $9.99N/A (N/A)200,000 .. 500,0000%00:00 (00:00)
226 Iron Storm May 8, 2014 $2.99N/A (N/A/69%)20,000 .. 50,0000%00:00 (00:00)
227 El Matador Apr 3, 2014 $3.99N/A (N/A/54%)20,000 .. 50,0000%00:00 (00:00)
228 Hero of Many Sep 15, 2014 $6.99N/A (N/A)20,000 .. 50,0000%00:00 (00:00)
229 UFO: Aftershock Apr 16, 2014 $3.99N/A (N/A)50,000 .. 100,0000%00:00 (00:00)
230 GALAK-Z Oct 29, 2015 $19.99N/A (N/A/78%)100,000 .. 200,0000%00:00 (00:00)
231 Evolution RTS Apr 7, 2014 FreeN/A (N/A)100,000 .. 200,0000%00:00 (00:00)
232 Disney•Pixar Cars 2: The Video Game Jun 21, 2011 $19.99N/A (N/A)0 .. 20,0000%00:00 (00:00)
233 UFO: Aftermath Oct 3, 2003 $3.99N/A (N/A)100,000 .. 200,0000%00:00 (00:00)
234 Curse: The Eye of Isis Oct 24, 2003 $2.99N/A (N/A/63%)0 .. 20,0000%00:00 (00:00)
235 Realms of the Haunting Dec 31, 1996 $2.99N/A (N/A)200,000 .. 500,0000%00:00 (00:00)
236 Chernobyl Commando Mar 8, 2013 $9.99N/A (N/A)50,000 .. 100,0000%00:00 (00:00)
237 Knight Squad Nov 16, 2015 $14.99N/A (N/A)50,000 .. 100,0000%00:00 (00:00)
238 Manhunter May 30, 2014 $4.99N/A (N/A)100,000 .. 200,0000%00:00 (00:00)
239 Haegemonia: Legions of Iron May 1, 2014 $4.99N/A (N/A)0 .. 20,0000%00:00 (00:00)

Tags over time:

Access restricted.

This feature is only available to users with special access rights. Sorry.

If you want to proceed, you need to register or log in first and then back Steam Spy on Patreon. Look for Indie or Pro pledge.

Don't forget to use the same email as on Steam Spy!

Owners of this game also own:

Access restricted.

This feature is only available to users with special access rights. Sorry.

If you want to proceed, you need to register or log in first and then back Steam Spy on Patreon. Look for Indie or Pro pledge.

Don't forget to use the same email as on Steam Spy!

Playtime distribution:

Access restricted.

This feature is only available to users with special access rights. Sorry.

If you want to proceed, you need to register or log in first and then back Steam Spy on Patreon. Look for Indie or Pro pledge.

Don't forget to use the same email as on Steam Spy!

Playtime (2 weeks):

Access restricted.

This feature is only available to users with special access rights. Sorry.

If you want to proceed, you need to register or log in first and then back Steam Spy on Patreon. Look for Indie or Pro pledge.

Don't forget to use the same email as on Steam Spy!

User reviews:

Login required.

Please register or log in to see this information.